createdAt,value
2018-12-11T00:02:07.889Z,1.50
2018-12-11T00:04:37.541Z,1.60
2018-12-11T00:07:06.826Z,2.15
2018-12-11T00:09:36.080Z,1.40
2018-12-11T00:12:05.321Z,1.62
2018-12-11T00:14:34.580Z,1.87
2018-12-11T00:17:03.809Z,1.52
2018-12-11T00:19:33.077Z,1.62
2018-12-11T00:22:02.320Z,2.08
2018-12-11T00:24:31.590Z,1.40
2018-12-11T00:27:00.848Z,1.65
2018-12-11T00:29:30.085Z,1.20
2018-12-11T00:31:59.338Z,1.40
2018-12-11T00:34:28.592Z,1.30
2018-12-11T00:36:57.819Z,1.20
2018-12-11T00:39:27.053Z,1.30
2018-12-11T00:41:56.290Z,1.30
2018-12-11T00:44:25.545Z,2.00
2018-12-11T00:46:54.807Z,1.55
2018-12-11T00:49:24.112Z,1.40
2018-12-11T00:51:53.402Z,1.60
2018-12-11T00:54:22.634Z,1.10
2018-12-11T00:56:51.869Z,3.00
2018-12-11T00:59:21.117Z,1.22
2018-12-11T01:01:50.421Z,1.20
2018-12-11T01:04:19.675Z,1.55
2018-12-11T01:06:48.946Z,1.30
2018-12-11T01:09:18.469Z,1.20
2018-12-11T01:11:47.797Z,1.35
2018-12-11T01:14:17.047Z,1.30
2018-12-11T01:16:46.266Z,1.40
2018-12-11T01:19:15.575Z,1.30
2018-12-11T01:21:44.840Z,1.20
2018-12-11T01:24:14.070Z,1.20
2018-12-11T01:26:43.314Z,1.12
2018-12-11T01:29:12.588Z,1.07
2018-12-11T01:31:41.844Z,1.27
2018-12-11T01:34:11.118Z,1.35
2018-12-11T01:36:40.340Z,1.12
2018-12-11T01:39:09.702Z,1.17
2018-12-11T01:41:38.966Z,1.27
2018-12-11T01:44:08.200Z,1.20
2018-12-11T01:46:38.373Z,1.50
2018-12-11T01:49:07.761Z,1.20
2018-12-11T01:51:37.019Z,0.98
2018-12-11T01:54:06.264Z,1.40
2018-12-11T01:56:35.477Z,1.30
2018-12-11T01:59:04.761Z,1.00
2018-12-11T02:01:34.339Z,1.40
2018-12-11T02:04:03.633Z,1.10
2018-12-11T02:06:32.860Z,1.50
2018-12-11T02:09:02.233Z,1.20
2018-12-11T02:11:31.473Z,1.10
2018-12-11T02:14:00.750Z,1.02
2018-12-11T02:16:30.121Z,1.00
2018-12-11T02:18:59.392Z,1.47
2018-12-11T02:21:28.677Z,0.95
2018-12-11T02:23:57.942Z,1.92
2018-12-11T02:26:27.195Z,1.15
2018-12-11T02:28:56.457Z,0.98
2018-12-11T02:31:25.700Z,1.20
2018-12-11T02:33:55.166Z,0.90
2018-12-11T02:36:24.435Z,1.05
2018-12-11T02:38:53.878Z,1.10
2018-12-11T02:41:23.133Z,1.00
2018-12-11T02:43:52.353Z,1.12
2018-12-11T02:46:21.596Z,1.05
2018-12-11T02:48:50.858Z,1.27
2018-12-11T02:51:20.134Z,1.10
2018-12-11T02:53:49.395Z,2.10
2018-12-11T02:56:18.620Z,0.85
2018-12-11T02:58:47.857Z,1.15
2018-12-11T03:01:17.145Z,1.50
2018-12-11T03:03:46.371Z,1.00
2018-12-11T03:06:15.641Z,1.02
2018-12-11T03:08:44.869Z,1.22
2018-12-11T03:11:14.141Z,1.20
2018-12-11T03:13:43.376Z,0.93
2018-12-11T03:16:12.645Z,1.00
2018-12-11T03:18:41.883Z,0.88
2018-12-11T03:21:11.149Z,1.00
2018-12-11T03:23:40.379Z,1.35
2018-12-11T03:26:09.649Z,1.27
2018-12-11T03:28:38.905Z,1.17
2018-12-11T03:31:08.148Z,1.10
2018-12-11T03:33:37.562Z,1.10
2018-12-11T03:36:06.829Z,1.02
2018-12-11T03:38:36.071Z,1.40
2018-12-11T03:41:05.448Z,1.00
2018-12-11T03:43:34.693Z,1.30
2018-12-11T03:46:03.992Z,1.07
2018-12-11T03:48:33.287Z,1.07
2018-12-11T03:51:02.533Z,1.10
2018-12-11T03:53:31.776Z,0.80
2018-12-11T03:56:01.014Z,1.25
2018-12-11T03:58:30.245Z,0.90
2018-12-11T04:00:59.485Z,1.40
2018-12-11T04:03:28.797Z,1.30
2018-12-11T04:05:58.062Z,1.10
2018-12-11T04:08:27.349Z,1.05
2018-12-11T04:10:56.625Z,1.20
2018-12-11T04:13:25.918Z,1.20
2018-12-11T04:15:55.292Z,1.25
2018-12-11T04:18:24.590Z,1.00
2018-12-11T04:20:53.835Z,1.30
2018-12-11T04:23:23.062Z,1.05
2018-12-11T04:25:52.330Z,1.02
2018-12-11T04:28:21.654Z,1.40
2018-12-11T04:30:50.937Z,1.30
2018-12-11T04:33:20.210Z,1.10
2018-12-11T04:35:49.456Z,1.82
2018-12-11T04:38:18.706Z,1.15
2018-12-11T04:40:47.957Z,1.20
2018-12-11T04:43:17.206Z,1.10
2018-12-11T04:45:46.459Z,1.12
2018-12-11T04:48:15.695Z,1.07
2018-12-11T04:50:44.954Z,1.20
2018-12-11T04:53:14.214Z,1.50
2018-12-11T04:55:43.492Z,1.22
2018-12-11T04:58:12.760Z,1.20
2018-12-11T05:00:42.016Z,1.30
2018-12-11T05:03:11.252Z,1.20
2018-12-11T05:05:40.577Z,1.47
2018-12-11T05:08:16.284Z,1.27
2018-12-11T05:10:45.716Z,1.20
2018-12-11T05:13:15.026Z,1.37
2018-12-11T05:15:44.288Z,1.80
2018-12-11T05:18:13.579Z,1.65
2018-12-11T05:20:42.800Z,1.50
2018-12-11T05:23:12.042Z,1.25
2018-12-11T05:25:41.281Z,1.20
2018-12-11T05:28:10.592Z,1.77
2018-12-11T05:30:39.814Z,1.35
2018-12-11T05:33:09.060Z,1.17
2018-12-11T05:35:38.313Z,1.12
2018-12-11T05:38:07.580Z,1.07
2018-12-11T05:40:36.855Z,1.75
2018-12-11T05:43:06.124Z,1.40
2018-12-11T05:45:35.415Z,1.60
2018-12-11T05:48:04.815Z,1.60
2018-12-11T05:50:34.193Z,1.50
2018-12-11T05:53:03.433Z,1.20
2018-12-11T05:55:32.683Z,1.50
2018-12-11T05:58:01.996Z,1.50
2018-12-11T06:00:31.234Z,1.40
2018-12-11T06:03:00.483Z,1.42
2018-12-11T06:05:29.735Z,1.72
2018-12-11T06:07:59.000Z,1.90
2018-12-11T06:10:28.294Z,1.87
2018-12-11T06:12:57.529Z,2.10
2018-12-11T06:15:26.782Z,1.72
2018-12-11T06:17:56.063Z,1.60
2018-12-11T06:20:25.329Z,1.80
2018-12-11T06:22:54.581Z,1.60
2018-12-11T06:25:23.848Z,1.85
2018-12-11T06:27:53.077Z,2.10
2018-12-11T06:30:22.344Z,1.55
2018-12-11T06:32:51.584Z,1.67
2018-12-11T06:35:20.886Z,2.40
2018-12-11T06:37:50.245Z,1.98
2018-12-11T06:40:19.544Z,2.22
2018-12-11T06:42:48.784Z,1.82
2018-12-11T06:45:18.037Z,2.05
2018-12-11T06:47:47.270Z,1.55
2018-12-11T06:50:16.510Z,2.00
2018-12-11T06:52:45.774Z,1.42
2018-12-11T06:55:15.085Z,1.60
2018-12-11T06:57:44.368Z,1.40
2018-12-11T07:00:13.612Z,1.80
2018-12-11T07:02:42.865Z,1.67
2018-12-11T07:05:12.209Z,2.12
2018-12-11T07:07:41.479Z,3.05
2018-12-11T07:10:10.797Z,2.00
2018-12-11T07:12:40.045Z,1.82
2018-12-11T07:15:09.698Z,1.87
2018-12-11T07:17:38.945Z,1.95
2018-12-11T07:20:08.609Z,1.65
2018-12-11T07:22:37.859Z,2.40
2018-12-11T07:25:07.204Z,2.15
2018-12-11T07:27:36.601Z,1.90
2018-12-11T07:30:06.572Z,1.98
2018-12-11T07:32:35.823Z,1.95
2018-12-11T07:35:05.202Z,2.20
2018-12-11T07:37:34.522Z,1.62
2018-12-11T07:40:03.965Z,2.10
2018-12-11T07:42:33.213Z,2.15
2018-12-11T07:45:02.507Z,1.85
2018-12-11T07:47:31.820Z,1.70
2018-12-11T07:50:01.052Z,2.60
2018-12-11T07:52:30.293Z,2.20
2018-12-11T07:54:59.523Z,2.15
2018-12-11T07:57:28.985Z,2.92
2018-12-11T07:59:58.214Z,2.10
2018-12-11T08:02:27.435Z,1.90
2018-12-11T08:04:56.676Z,1.95
2018-12-11T08:07:26.013Z,1.85
2018-12-11T08:09:55.233Z,2.10
2018-12-11T08:12:24.471Z,2.50
2018-12-11T08:14:53.801Z,2.37
2018-12-11T08:17:23.060Z,1.98
2018-12-11T08:19:52.317Z,1.87
2018-12-11T08:22:21.562Z,2.35
2018-12-11T08:24:50.932Z,1.95
2018-12-11T08:27:20.133Z,1.90
2018-12-11T08:29:49.334Z,2.17
2018-12-11T08:32:18.568Z,1.98
2018-12-11T08:34:47.802Z,2.02
2018-12-11T08:37:17.058Z,1.92
2018-12-11T08:39:46.304Z,2.30
2018-12-11T08:42:15.548Z,2.70
2018-12-11T08:44:51.010Z,2.87
2018-12-11T08:47:16.027Z,1.60
2018-12-11T08:49:45.261Z,2.22
2018-12-11T08:52:14.553Z,1.60
2018-12-11T08:54:43.751Z,1.50
2018-12-11T08:57:13.140Z,2.45
2018-12-11T08:59:42.362Z,2.00
2018-12-11T09:02:11.605Z,2.10
2018-12-11T09:04:41.463Z,2.10
2018-12-11T09:07:10.861Z,2.15
2018-12-11T09:09:40.145Z,1.77
2018-12-11T09:12:09.369Z,3.47
2018-12-11T09:14:38.615Z,2.12
2018-12-11T09:17:10.253Z,2.55
2018-12-11T09:19:39.396Z,1.65
2018-12-11T09:22:08.779Z,1.67
2018-12-11T09:24:38.492Z,1.85
2018-12-11T09:27:07.732Z,2.08
2018-12-11T09:29:36.961Z,1.77
2018-12-11T09:32:06.186Z,2.20
2018-12-11T09:34:35.416Z,1.80
2018-12-11T09:37:04.680Z,2.55
2018-12-11T09:39:34.060Z,2.00
2018-12-11T09:42:07.072Z,2.40
2018-12-11T09:44:34.523Z,2.77
2018-12-11T09:47:03.873Z,2.37
2018-12-11T09:49:33.166Z,1.50
2018-12-11T09:52:02.680Z,2.00
2018-12-11T09:54:31.942Z,1.85
2018-12-11T09:57:01.228Z,1.40
2018-12-11T09:59:30.569Z,1.70
2018-12-11T10:01:59.885Z,2.20
2018-12-11T10:04:29.223Z,1.82
2018-12-11T10:06:58.652Z,1.62
2018-12-11T10:09:27.994Z,1.65
2018-12-11T10:11:58.325Z,1.95
2018-12-11T10:14:27.626Z,1.62
2018-12-11T10:16:56.930Z,1.45
2018-12-11T10:19:26.325Z,1.90
2018-12-11T10:21:55.610Z,1.82
2018-12-11T10:24:25.474Z,1.65
2018-12-11T10:26:54.861Z,2.45
2018-12-11T10:29:24.205Z,1.50
2018-12-11T10:31:53.439Z,1.50
2018-12-11T10:34:22.645Z,1.50
2018-12-11T10:36:51.889Z,1.90
2018-12-11T10:39:21.128Z,1.50
2018-12-11T10:41:50.388Z,1.60
2018-12-11T10:44:19.637Z,1.80
2018-12-11T10:46:48.892Z,1.52
2018-12-11T10:49:18.243Z,1.50
2018-12-11T10:51:47.445Z,1.50
2018-12-11T10:54:16.680Z,1.62
2018-12-11T10:56:45.933Z,1.65
2018-12-11T10:59:15.162Z,1.37
2018-12-11T11:01:47.338Z,1.57
2018-12-11T11:04:16.865Z,4.05
2018-12-11T11:06:46.149Z,4.50
2018-12-11T11:09:15.353Z,1.67
2018-12-11T11:11:44.617Z,1.72
2018-12-11T11:14:13.860Z,2.12
2018-12-11T11:16:43.106Z,1.70
2018-12-11T11:19:12.354Z,1.50
2018-12-11T11:21:41.585Z,1.50
2018-12-11T11:24:11.034Z,1.60
2018-12-11T11:26:40.251Z,1.62
2018-12-11T11:29:09.487Z,1.50
2018-12-11T11:31:38.765Z,1.37
2018-12-11T11:34:08.222Z,1.45
2018-12-11T11:36:37.438Z,1.52
2018-12-11T11:39:08.521Z,1.20
2018-12-11T11:41:37.797Z,1.55
2018-12-11T11:44:07.046Z,1.20
2018-12-11T11:46:36.257Z,1.70
2018-12-11T11:49:05.517Z,1.70
2018-12-11T11:51:34.745Z,2.20
2018-12-11T11:54:04.025Z,1.60
2018-12-11T11:56:33.285Z,1.45
2018-12-11T11:59:02.497Z,1.98
2018-12-11T12:01:31.754Z,1.32
2018-12-11T12:04:01.036Z,1.65
2018-12-11T12:06:30.258Z,1.60
2018-12-11T12:08:59.537Z,1.37
2018-12-11T12:11:28.790Z,1.77
2018-12-11T12:13:59.136Z,1.27
2018-12-11T12:16:28.494Z,1.50
2018-12-11T12:18:57.733Z,1.60
2018-12-11T12:21:27.176Z,1.52
2018-12-11T12:23:56.412Z,1.20
2018-12-11T12:26:25.788Z,1.87
2018-12-11T12:28:55.045Z,1.10
2018-12-11T12:31:25.016Z,1.50
2018-12-11T12:33:54.280Z,1.42
2018-12-11T12:36:23.519Z,1.30
2018-12-11T12:38:52.868Z,1.60
2018-12-11T12:41:22.129Z,1.40
2018-12-11T12:43:51.390Z,3.00
2018-12-11T12:46:20.617Z,2.27
2018-12-11T12:48:49.859Z,2.40
2018-12-11T12:51:19.098Z,3.20
2018-12-11T12:53:48.332Z,2.08
2018-12-11T12:56:17.537Z,3.35
2018-12-11T12:58:46.969Z,1.62
2018-12-11T13:01:16.269Z,1.30
2018-12-11T13:03:46.227Z,2.47
2018-12-11T13:06:15.642Z,1.50
2018-12-11T13:08:44.864Z,1.70
2018-12-11T13:11:14.104Z,1.32
2018-12-11T13:13:43.389Z,1.25
2018-12-11T13:16:12.966Z,1.22
2018-12-11T13:18:42.306Z,1.32
2018-12-11T13:21:11.636Z,1.80
2018-12-11T13:23:44.494Z,1.20
2018-12-11T13:26:13.814Z,1.70
2018-12-11T13:28:43.042Z,1.60
2018-12-11T13:31:12.370Z,1.40
2018-12-11T13:33:41.638Z,1.65
2018-12-11T13:36:10.996Z,1.32
2018-12-11T13:38:40.266Z,1.60
2018-12-11T13:41:09.508Z,1.20
2018-12-11T13:43:38.921Z,1.30
2018-12-11T13:46:08.204Z,1.25
2018-12-11T13:48:37.528Z,1.50
2018-12-11T13:51:06.817Z,1.17
2018-12-11T13:53:36.071Z,2.05
2018-12-11T13:56:05.388Z,1.45
2018-12-11T13:58:34.661Z,1.12
2018-12-11T14:01:03.928Z,1.25
2018-12-11T14:03:33.197Z,1.40
2018-12-11T14:06:02.451Z,1.27
2018-12-11T14:08:31.732Z,1.40
2018-12-11T14:11:01.017Z,1.10
2018-12-11T14:13:30.649Z,1.60
2018-12-11T14:16:00.065Z,1.60
2018-12-11T14:18:29.357Z,1.62
2018-12-11T14:20:58.580Z,1.72
2018-12-11T14:23:27.915Z,1.60
2018-12-11T14:25:57.147Z,1.40
2018-12-11T14:28:26.430Z,2.45
2018-12-11T14:30:55.712Z,1.30
2018-12-11T14:33:24.945Z,1.40
2018-12-11T14:35:54.209Z,1.70
2018-12-11T14:38:23.488Z,1.20
2018-12-11T14:40:52.745Z,1.00
2018-12-11T14:43:22.029Z,1.85
2018-12-11T14:45:51.304Z,1.10
2018-12-11T14:48:20.584Z,1.57
2018-12-11T14:50:49.884Z,1.27
2018-12-11T14:53:19.156Z,1.80
2018-12-11T14:55:48.390Z,1.27
2018-12-11T14:58:17.630Z,1.45
2018-12-11T15:00:46.909Z,1.20
2018-12-11T15:03:16.169Z,1.27
2018-12-11T15:05:45.444Z,1.55
2018-12-11T15:08:14.713Z,1.50
2018-12-11T15:10:44.010Z,1.62
2018-12-11T15:13:13.394Z,1.92
2018-12-11T15:15:42.710Z,1.70
2018-12-11T15:18:12.009Z,3.10
2018-12-11T15:20:41.281Z,1.90
2018-12-11T15:23:10.504Z,1.50
2018-12-11T15:25:39.789Z,1.70
2018-12-11T15:28:09.059Z,1.90
2018-12-11T15:30:38.312Z,1.60
2018-12-11T15:33:07.618Z,1.50
2018-12-11T15:35:36.906Z,1.50
2018-12-11T15:38:06.185Z,2.00
2018-12-11T15:40:35.427Z,1.80
2018-12-11T15:43:04.796Z,2.30
2018-12-11T15:45:34.062Z,2.00
2018-12-11T15:48:03.395Z,1.65
2018-12-11T15:50:32.591Z,2.90
2018-12-11T15:53:01.849Z,1.72
2018-12-11T15:55:31.141Z,2.02
2018-12-11T15:58:00.452Z,2.22
2018-12-11T16:00:29.742Z,1.95
2018-12-11T16:02:59.035Z,2.50
2018-12-11T16:05:28.295Z,1.85
2018-12-11T16:07:57.590Z,2.30
2018-12-11T16:10:27.041Z,3.17
2018-12-11T16:12:56.290Z,2.40
2018-12-11T16:15:25.565Z,2.05
2018-12-11T16:17:54.835Z,1.90
2018-12-11T16:20:24.192Z,2.60
2018-12-11T16:22:53.492Z,2.05
2018-12-11T16:25:22.839Z,1.90
2018-12-11T16:27:52.210Z,2.25
2018-12-11T16:30:21.425Z,1.87
2018-12-11T16:32:50.798Z,2.33
2018-12-11T16:35:20.086Z,2.17
2018-12-11T16:37:49.663Z,2.70
2018-12-11T16:40:18.898Z,2.72
2018-12-11T16:42:48.156Z,2.50
2018-12-11T16:45:17.437Z,2.10
2018-12-11T16:47:46.721Z,2.08
2018-12-11T16:50:16.014Z,2.15
2018-12-11T16:52:45.300Z,2.27
2018-12-11T16:55:14.642Z,2.20
2018-12-11T16:57:43.906Z,2.60
2018-12-11T17:00:13.922Z,2.80
2018-12-11T17:02:43.173Z,2.47
2018-12-11T17:05:12.622Z,2.65
2018-12-11T17:07:41.866Z,2.40
2018-12-11T17:10:11.138Z,2.33
2018-12-11T17:12:40.563Z,2.55
2018-12-11T17:15:14.167Z,2.75
2018-12-11T17:17:43.563Z,2.50
2018-12-11T17:20:12.868Z,2.15
2018-12-11T17:22:42.132Z,3.17
2018-12-11T17:25:11.426Z,2.60
2018-12-11T17:27:40.690Z,3.08
2018-12-11T17:30:10.062Z,3.22
2018-12-11T17:32:39.345Z,2.98
2018-12-11T17:35:08.618Z,4.28
2018-12-11T17:37:37.889Z,3.30
2018-12-11T17:40:07.391Z,3.05
2018-12-11T17:42:36.629Z,2.72
2018-12-11T17:45:06.097Z,2.87
2018-12-11T17:47:35.365Z,3.20
2018-12-11T17:50:06.084Z,2.92
2018-12-11T17:52:35.344Z,2.75
2018-12-11T17:55:04.870Z,3.20
2018-12-11T17:57:34.118Z,3.22
2018-12-11T18:00:03.655Z,3.75
2018-12-11T18:02:36.763Z,3.40
2018-12-11T18:05:06.930Z,3.20
2018-12-11T18:07:36.276Z,3.00
2018-12-11T18:10:06.692Z,3.80
2018-12-11T18:12:35.969Z,4.28
2018-12-11T18:15:05.877Z,3.70
2018-12-11T18:17:35.165Z,4.10
2018-12-11T18:20:05.994Z,4.25
2018-12-11T18:22:35.365Z,4.20
2018-12-11T18:25:05.062Z,3.92
2018-12-11T18:27:34.330Z,3.60
2018-12-11T18:30:04.703Z,3.30
2018-12-11T18:32:34.011Z,3.25
2018-12-11T18:35:03.901Z,3.20
2018-12-11T18:37:33.230Z,3.05
2018-12-11T18:40:02.516Z,3.05
2018-12-11T18:42:31.865Z,3.27
2018-12-11T18:45:03.333Z,3.40
2018-12-11T18:47:32.408Z,3.33
2018-12-11T18:50:01.698Z,3.58
2018-12-11T18:52:31.581Z,2.85
2018-12-11T18:55:01.019Z,3.05
2018-12-11T18:57:30.392Z,3.25
2018-12-11T18:59:59.688Z,2.90
2018-12-11T19:02:29.005Z,3.08
2018-12-11T19:04:58.246Z,2.90
2018-12-11T19:07:27.650Z,3.17
2018-12-11T19:09:57.017Z,3.42
2018-12-11T19:12:26.290Z,4.28
2018-12-11T19:14:55.660Z,3.75
2018-12-11T19:17:24.929Z,4.42
2018-12-11T19:19:54.204Z,3.40
2018-12-11T19:22:23.482Z,4.33
2018-12-11T19:24:55.032Z,4.08
2018-12-11T19:27:24.406Z,4.42
2018-12-11T19:29:53.715Z,4.47
2018-12-11T19:32:23.154Z,3.95
2018-12-11T19:34:52.409Z,3.02
2018-12-11T19:37:21.732Z,3.00
2018-12-11T19:39:51.019Z,2.80
2018-12-11T19:42:20.328Z,3.50
2018-12-11T19:44:49.695Z,2.95
2018-12-11T19:47:19.056Z,4.72
2018-12-11T19:49:48.306Z,4.60
2018-12-11T19:52:17.625Z,5.12
2018-12-11T19:54:46.919Z,4.65
2018-12-11T19:57:16.257Z,3.98
2018-12-11T19:59:45.542Z,5.17
2018-12-11T20:02:14.808Z,4.55
2018-12-11T20:04:44.057Z,4.33
2018-12-11T20:07:13.397Z,4.35
2018-12-11T20:09:48.126Z,4.40
2018-12-11T20:12:17.573Z,5.65
2018-12-11T20:14:46.870Z,4.35
2018-12-11T20:17:16.134Z,3.35
2018-12-11T20:19:45.477Z,4.50
2018-12-11T20:22:14.758Z,5.25
2018-12-11T20:24:44.053Z,5.47
2018-12-11T20:27:13.348Z,5.37
2018-12-11T20:29:42.740Z,4.22
2018-12-11T20:32:12.036Z,4.80
2018-12-11T20:34:41.350Z,4.80
2018-12-11T20:37:10.632Z,4.35
2018-12-11T20:39:40.066Z,4.90
2018-12-11T20:42:09.356Z,3.98
2018-12-11T20:44:38.617Z,4.15
2018-12-11T20:47:07.925Z,4.08
2018-12-11T20:49:37.228Z,3.30
2018-12-11T20:52:06.534Z,3.98
2018-12-11T20:54:35.805Z,3.47
2018-12-11T20:57:05.143Z,3.35
2018-12-11T20:59:34.356Z,3.60
2018-12-11T21:02:03.832Z,3.02
2018-12-11T21:04:33.113Z,4.83
2018-12-11T21:07:02.450Z,4.30
2018-12-11T21:09:31.799Z,5.22
2018-12-11T21:12:01.116Z,5.95
2018-12-11T21:14:30.375Z,6.65
2018-12-11T21:16:59.620Z,5.50
2018-12-11T21:19:28.917Z,5.35
2018-12-11T21:21:58.204Z,4.92
2018-12-11T21:24:27.674Z,5.42
2018-12-11T21:26:57.095Z,5.20
2018-12-11T21:29:26.897Z,5.05
2018-12-11T21:31:56.185Z,5.53
2018-12-11T21:34:25.519Z,5.17
2018-12-11T21:36:54.788Z,5.08
2018-12-11T21:39:24.126Z,5.45
2018-12-11T21:41:53.365Z,4.75
2018-12-11T21:44:22.598Z,5.37
2018-12-11T21:46:52.886Z,4.75
2018-12-11T21:49:22.261Z,5.67
2018-12-11T21:51:51.562Z,5.92
2018-12-11T21:54:20.884Z,3.87
2018-12-11T21:56:50.273Z,4.42
2018-12-11T21:59:19.539Z,5.17
2018-12-11T22:01:48.846Z,5.00
2018-12-11T22:04:18.293Z,5.60
2018-12-11T22:06:47.602Z,5.10
2018-12-11T22:09:16.990Z,4.62
2018-12-11T22:11:46.244Z,5.10
2018-12-11T22:14:15.510Z,3.80
2018-12-11T22:16:45.106Z,4.47
2018-12-11T22:19:14.527Z,4.47
2018-12-11T22:21:43.825Z,3.77
2018-12-11T22:24:13.163Z,4.87
2018-12-11T22:26:42.518Z,5.53
2018-12-11T22:29:11.777Z,4.28
2018-12-11T22:31:41.229Z,4.28
2018-12-11T22:34:10.519Z,4.65
2018-12-11T22:36:39.764Z,5.35
2018-12-11T22:39:09.539Z,5.00
2018-12-11T22:41:38.782Z,5.67
2018-12-11T22:44:07.993Z,4.08
2018-12-11T22:46:37.371Z,4.40
2018-12-11T22:49:06.625Z,4.83
2018-12-11T22:51:35.910Z,4.40
2018-12-11T22:54:12.278Z,5.30
2018-12-11T22:56:41.596Z,6.47
2018-12-11T22:59:10.858Z,4.10
2018-12-11T23:01:40.097Z,4.72
2018-12-11T23:04:09.346Z,4.47
2018-12-11T23:06:38.557Z,4.05
2018-12-11T23:09:08.614Z,3.47
2018-12-11T23:11:37.839Z,3.30
2018-12-11T23:14:07.102Z,4.55
2018-12-11T23:16:36.430Z,4.17
2018-12-11T23:19:05.662Z,3.45
2018-12-11T23:21:34.934Z,4.05
2018-12-11T23:24:04.170Z,3.47
2018-12-11T23:26:33.428Z,4.00
2018-12-11T23:29:02.704Z,4.05
2018-12-11T23:31:31.963Z,4.37
2018-12-11T23:34:01.256Z,3.55
2018-12-11T23:36:30.497Z,3.60
2018-12-11T23:38:59.745Z,4.10
2018-12-11T23:41:28.977Z,3.75
2018-12-11T23:43:58.253Z,4.25
2018-12-11T23:46:27.484Z,5.20
2018-12-11T23:48:56.760Z,3.80
2018-12-11T23:51:26.017Z,4.17
2018-12-11T23:53:55.233Z,5.20
2018-12-11T23:56:24.487Z,5.00
2018-12-11T23:58:53.716Z,5.42
